KGLS/GLS METAR and TAF weather

Enter ICAO airport designator
Station Type Date Time Source
KGLS METAR 2021/05/14 11:52 UTC NOAA

KGLS 141152Z 03009KT 10SM FEW022 OVC050 22/16 A3019 RMK AO2 SLP223 T02170161 10228 20217 53013


Station Type Date Time Source
KGLS Decoded METAR 2021/05/14 11:52 UTC NOAA

SCHOLES FIELD, TX, United States (KGLS) 29-16N 094-52W 6M
May 14, 2021 - 07:52 AM EDT / 2021.05.14 1152 UTC
Wind: from the NNE (030 degrees) at 10 MPH (9 KT):0
Visibility: 10 mile(s):0
Sky conditions: overcast
Temperature: 71.1 F (21.7 C)
Dew Point: 61.0 F (16.1 C)
Relative Humidity: 70%
Pressure (altimeter): 30.19 in. Hg (1022 hPa)
Pressure tendency: 0.04 inches (1.3 hPa) higher than three hours ago
ob: KGLS 141152Z 03009KT 10SM FEW022 OVC050 22/16 A3019 RMK AO2 SLP223 T02170161 10228 20217 53013
cycle: 12

Station Type Date Time Source
KGLS TAF 2021/05/14 12:25 UTC NOAA

TAF KGLS 141120Z 1412/1512 05010KT P6SM FEW025 BKN050
FM141800 09010KT P6SM FEW025 SCT045
FM142300 12011KT P6SM FEW025
FM150900 15010KT P6SM SCT020

Example: see airport list